Yeager (CRW)

 

Airport Diagram
Current Weather/Forecast (VFR Conditions)
METAR KCRW 051354Z 00000KT 10SM CLR M02/M11 A3028 RMK AO2 SLP264 T10221106 $
TAF KCRW 051122Z 0512/0612 35005KT P6SM SKC FM051800 30008G15KT P6SM SKC FM052300 29006KT P6SM SKC FM060300 00000KT P6SM SKC

Airport Information

All Charts
General
Chart Name View
AIRPORT DIAGRAM
AIRPORT DIAGRAM
TAKEOFF MINIMUMS
ALTERNATE MINIMUMS
TAKEOFF MINIMUMS
ALTERNATE MINIMUMS

Approaches
Chart Name Download
ILS OR LOC RWY 05
ILS OR LOC RWY 23
RNAV (RNP) Z RWY 05
RNAV (RNP) Z RWY 23
RNAV (GPS) Y RWY 05
RNAV (GPS) Y RWY 23
VOR-A
ILS OR LOC RWY 05
ILS OR LOC RWY 23
RNAV (RNP) Z RWY 05
RNAV (RNP) Z RWY 23
RNAV (GPS) Y RWY 05
RNAV (GPS) Y RWY 23
VOR-A


Airport Statistics
Departures Arrivals Local
All Collected Stats since June 2016: 431 377 19
2021 Stats: 56 61 1
March Stats: 8 5 0

Inbound Traffic (Arrivals) - 0

No inbound traffic.


Outbound Traffic (Departures) - 0

No outbound traffic.


Local Traffic (Pattern) - 0

No local traffic.